createdAt,value
2019-04-25T00:00:02.110Z,99.90
2019-04-25T00:02:38.248Z,99.90
2019-04-25T00:05:11.407Z,99.90
2019-04-25T00:07:42.482Z,99.90
2019-04-25T00:10:13.760Z,99.90
2019-04-25T00:12:44.495Z,99.90
2019-04-25T00:15:14.076Z,99.90
2019-04-25T00:17:44.549Z,99.90
2019-04-25T00:20:14.622Z,99.90
2019-04-25T00:22:53.373Z,99.90
2019-04-25T00:25:42.274Z,99.90
2019-04-25T00:28:11.717Z,99.90
2019-04-25T00:30:43.437Z,99.90
2019-04-25T00:33:12.078Z,99.90
2019-04-25T00:35:43.492Z,99.90
2019-04-25T00:38:12.424Z,99.90
2019-04-25T00:40:42.753Z,99.90
2019-04-25T00:43:12.916Z,99.90
2019-04-25T00:45:43.566Z,99.90
2019-04-25T00:48:13.294Z,99.90
2019-04-25T00:50:43.411Z,99.90
2019-04-25T00:53:13.657Z,99.90
2019-04-25T00:55:43.161Z,99.90
2019-04-25T00:58:19.467Z,99.90
2019-04-25T01:01:02.957Z,99.90
2019-04-25T01:03:32.884Z,99.90
2019-04-25T01:06:03.714Z,99.90
2019-04-25T01:08:33.429Z,99.90
2019-04-25T01:11:02.714Z,99.90
2019-04-25T01:13:32.214Z,99.90
2019-04-25T01:16:02.168Z,99.90
2019-04-25T01:18:33.725Z,99.90
2019-04-25T01:21:04.432Z,99.90
2019-04-25T01:23:33.961Z,99.90
2019-04-25T01:26:03.408Z,99.90
2019-04-25T01:28:33.567Z,99.90
2019-04-25T01:31:05.204Z,99.90
2019-04-25T01:33:34.584Z,99.90
2019-04-25T01:36:10.484Z,99.90
2019-04-25T01:38:58.922Z,99.90
2019-04-25T01:41:50.074Z,99.90
2019-04-25T01:44:25.843Z,99.90
2019-04-25T01:46:56.443Z,99.90
2019-04-25T01:49:25.931Z,99.90
2019-04-25T01:51:57.458Z,99.90
2019-04-25T01:54:26.675Z,99.90
2019-04-25T01:56:56.286Z,99.90
2019-04-25T01:59:25.807Z,99.90
2019-04-25T02:01:55.605Z,99.90
2019-04-25T02:04:24.985Z,99.90
2019-04-25T02:06:55.465Z,99.90
2019-04-25T02:09:25.014Z,99.90
2019-04-25T02:12:04.789Z,99.90
2019-04-25T02:14:33.846Z,99.90
2019-04-25T02:17:04.543Z,99.90
2019-04-25T02:19:35.794Z,99.90
2019-04-25T02:22:05.276Z,99.90
2019-04-25T02:24:34.656Z,99.90
2019-04-25T02:27:04.732Z,99.90
2019-04-25T02:29:34.162Z,99.90
2019-04-25T02:32:08.795Z,99.90
2019-04-25T02:34:34.941Z,99.90
2019-04-25T02:37:09.086Z,99.90
2019-04-25T02:39:37.454Z,99.90
2019-04-25T02:42:08.411Z,99.90
2019-04-25T02:44:40.759Z,99.90
2019-04-25T02:47:24.851Z,99.90
2019-04-25T02:50:08.487Z,99.90
2019-04-25T02:52:39.580Z,99.90
2019-04-25T03:05:35.775Z,99.90
2019-04-25T03:08:08.286Z,99.90
2019-04-25T03:10:36.083Z,99.90
2019-04-25T03:13:11.240Z,99.90
2019-04-25T03:15:36.723Z,99.90
2019-04-25T03:18:11.908Z,99.90
2019-04-25T03:20:59.182Z,99.90
2019-04-25T03:23:42.245Z,99.90
2019-04-25T03:26:09.706Z,99.90
2019-04-25T03:28:39.075Z,99.90
2019-04-25T03:31:15.183Z,99.90
2019-04-25T03:33:39.446Z,99.90
2019-04-25T03:36:09.334Z,99.90
2019-04-25T03:38:38.818Z,99.90
2019-04-25T03:41:08.674Z,99.90
2019-04-25T03:43:38.067Z,99.90
2019-04-25T03:46:09.095Z,99.90
2019-04-25T03:48:38.509Z,99.90
2019-04-25T03:51:08.038Z,99.90
2019-04-25T03:53:38.498Z,99.90
2019-04-25T03:56:08.666Z,99.90
2019-04-25T03:58:38.125Z,99.90
2019-04-25T04:01:08.641Z,99.90
2019-04-25T04:03:38.684Z,99.90
2019-04-25T04:06:08.679Z,99.90
2019-04-25T04:08:39.399Z,99.90
2019-04-25T04:11:08.741Z,99.90
2019-04-25T04:13:38.032Z,99.90
2019-04-25T04:16:08.412Z,99.90
2019-04-25T04:18:44.068Z,99.90
2019-04-25T04:21:33.247Z,99.90
2019-04-25T04:24:27.579Z,99.90
2019-04-25T04:27:28.018Z,99.90
2019-04-25T04:29:57.423Z,99.90
2019-04-25T04:32:26.782Z,99.90
2019-04-25T04:34:56.227Z,99.90
2019-04-25T04:37:25.565Z,99.90
2019-04-25T04:39:54.968Z,99.90
2019-04-25T04:42:24.310Z,99.90
2019-04-25T04:44:53.762Z,99.90
2019-04-25T04:47:24.317Z,99.90
2019-04-25T04:49:54.112Z,99.90
2019-04-25T04:52:25.481Z,99.90
2019-04-25T04:55:05.345Z,99.90
2019-04-25T04:57:32.926Z,99.90
2019-04-25T04:59:57.644Z,99.90
2019-04-25T05:02:53.299Z,99.90
2019-04-25T05:05:44.640Z,99.90
2019-04-25T05:08:18.804Z,99.90
2019-04-25T05:10:48.298Z,99.90
2019-04-25T05:13:17.976Z,99.90
2019-04-25T05:15:47.370Z,99.90
2019-04-25T05:18:32.949Z,99.90
2019-04-25T05:20:47.708Z,99.90
2019-04-25T05:23:17.167Z,99.90
2019-04-25T05:25:46.527Z,99.90
2019-04-25T05:28:17.928Z,99.90
2019-04-25T05:30:59.002Z,99.90
2019-04-25T05:33:28.443Z,99.90
2019-04-25T05:35:57.817Z,99.90
2019-04-25T05:38:27.223Z,99.90
2019-04-25T05:41:04.027Z,99.90
2019-04-25T05:43:33.675Z,99.90
2019-04-25T05:46:04.459Z,99.90
2019-04-25T05:48:34.102Z,99.90
2019-04-25T05:51:03.907Z,99.90
2019-04-25T05:53:33.465Z,99.90
2019-04-25T05:56:04.181Z,99.90
2019-04-25T05:58:33.824Z,99.90
2019-04-25T06:01:03.406Z,99.90
2019-04-25T06:03:33.945Z,99.90
2019-04-25T06:06:03.605Z,99.90
2019-04-25T06:08:35.193Z,99.90
2019-04-25T06:11:24.790Z,99.90
2019-04-25T06:14:01.104Z,99.90
2019-04-25T06:16:34.753Z,99.90
2019-04-25T06:19:25.196Z,99.90
2019-04-25T06:21:55.011Z,99.90
2019-04-25T06:24:34.329Z,99.90
2019-04-25T06:27:25.484Z,99.90
2019-04-25T06:30:04.825Z,99.90
2019-04-25T06:32:35.443Z,99.90
2019-04-25T06:35:05.738Z,99.90
2019-04-25T06:37:35.179Z,99.90
2019-04-25T06:40:06.529Z,99.90
2019-04-25T06:42:36.290Z,99.90
2019-04-25T06:45:25.298Z,99.90
2019-04-25T06:48:10.643Z,99.90
2019-04-25T06:50:40.129Z,99.90
2019-04-25T06:53:09.539Z,99.90
2019-04-25T06:55:38.872Z,99.90
2019-04-25T06:58:12.090Z,99.90
2019-04-25T07:00:41.335Z,99.90
2019-04-25T07:03:10.508Z,99.90
2019-04-25T07:05:40.671Z,99.90
2019-04-25T07:08:10.325Z,99.90
2019-04-25T07:10:39.588Z,99.90
2019-04-25T07:13:08.966Z,99.90
2019-04-25T07:15:38.469Z,99.90
2019-04-25T07:18:07.808Z,99.90
2019-04-25T07:20:37.176Z,99.90
2019-04-25T07:23:06.639Z,99.90
2019-04-25T07:25:40.402Z,98.30
2019-04-25T07:28:31.142Z,96.10
2019-04-25T07:31:25.421Z,93.10
2019-04-25T07:34:03.203Z,92.40
2019-04-25T07:36:33.405Z,91.20
2019-04-25T07:39:10.365Z,90.00
2019-04-25T07:41:38.337Z,86.20
2019-04-25T07:44:08.019Z,81.70
2019-04-25T07:46:40.012Z,79.60
2019-04-25T07:49:08.410Z,79.60
2019-04-25T07:51:37.836Z,74.30
2019-04-25T07:54:07.600Z,75.50
2019-04-25T07:56:37.871Z,75.90
2019-04-25T07:59:07.630Z,72.00
2019-04-25T08:01:37.938Z,71.40
2019-04-25T08:04:08.158Z,69.20
2019-04-25T08:06:37.669Z,68.10
2019-04-25T08:09:09.792Z,65.00
2019-04-25T08:11:39.277Z,67.30
2019-04-25T08:14:14.403Z,66.20
2019-04-25T08:16:46.617Z,64.60
2019-04-25T08:19:16.125Z,66.20
2019-04-25T08:21:45.791Z,65.90
2019-04-25T08:24:15.812Z,64.80
2019-04-25T08:26:45.113Z,65.10
2019-04-25T08:29:14.538Z,64.40
2019-04-25T08:31:45.274Z,65.00
2019-04-25T08:34:15.258Z,62.50
2019-04-25T08:36:46.139Z,61.50
2019-04-25T08:39:15.768Z,62.40
2019-04-25T08:42:14.812Z,62.90
2019-04-25T08:44:46.578Z,64.20
2019-04-25T08:47:15.837Z,65.00
2019-04-25T08:49:53.892Z,65.60
2019-04-25T08:52:24.360Z,66.20
2019-04-25T08:55:04.482Z,66.80
2019-04-25T08:58:26.210Z,66.60
2019-04-25T09:01:13.678Z,65.60
2019-04-25T09:03:57.408Z,66.40
2019-04-25T09:06:27.196Z,66.30
2019-04-25T09:08:56.767Z,64.30
2019-04-25T09:11:27.391Z,60.10
2019-04-25T09:14:08.061Z,55.20
2019-04-25T09:17:03.241Z,56.80
2019-04-25T09:19:33.363Z,53.70
2019-04-25T09:22:06.386Z,52.80
2019-04-25T09:24:36.853Z,51.90
2019-04-25T09:27:06.890Z,50.50
2019-04-25T09:29:36.753Z,47.70
2019-04-25T09:32:09.445Z,49.60
2019-04-25T09:34:38.819Z,46.40
2019-04-25T09:37:08.563Z,46.00
2019-04-25T09:40:00.868Z,47.50
2019-04-25T09:42:30.229Z,46.90
2019-04-25T09:45:08.946Z,44.60
2019-04-25T09:47:39.266Z,43.90
2019-04-25T09:50:43.865Z,44.10
2019-04-25T09:53:21.815Z,41.60
2019-04-25T09:55:55.649Z,43.70
2019-04-25T09:58:45.925Z,43.80
2019-04-25T10:01:15.559Z,43.80
2019-04-25T10:03:45.724Z,43.90
2019-04-25T10:06:17.661Z,43.60
2019-04-25T10:08:47.500Z,44.20
2019-04-25T10:11:17.310Z,42.50
2019-04-25T10:13:56.096Z,41.70
2019-04-25T10:16:25.670Z,41.70
2019-04-25T10:18:55.030Z,40.90
2019-04-25T10:21:24.511Z,40.50
2019-04-25T10:23:53.915Z,40.30
2019-04-25T10:26:23.594Z,41.00
2019-04-25T10:28:52.913Z,39.00
2019-04-25T10:31:23.643Z,40.00
2019-04-25T10:33:53.557Z,39.50
2019-04-25T10:36:24.596Z,39.50
2019-04-25T10:39:05.140Z,38.40
2019-04-25T10:41:25.061Z,38.00
2019-04-25T10:43:56.037Z,38.30
2019-04-25T10:46:25.510Z,38.10
2019-04-25T10:48:56.226Z,37.70
2019-04-25T10:51:25.733Z,36.50
2019-04-25T10:53:55.153Z,38.10
2019-04-25T10:56:24.547Z,38.00
2019-04-25T10:58:54.945Z,38.00
2019-04-25T11:01:24.657Z,37.40
2019-04-25T11:04:00.111Z,38.00
2019-04-25T11:06:29.716Z,37.30
2019-04-25T11:08:59.045Z,37.80
2019-04-25T11:11:28.366Z,39.00
2019-04-25T11:13:59.116Z,37.50
2019-04-25T11:16:28.720Z,37.20
2019-04-25T11:18:58.085Z,37.10
2019-04-25T11:21:27.410Z,37.30
2019-04-25T11:23:56.799Z,37.20
2019-04-25T11:26:27.859Z,37.50
2019-04-25T11:28:57.283Z,37.10
2019-04-25T11:31:47.359Z,38.20
2019-04-25T11:34:17.515Z,37.10
2019-04-25T11:36:47.317Z,36.60
2019-04-25T11:39:36.050Z,37.00
2019-04-25T11:42:14.749Z,36.60
2019-04-25T11:44:45.474Z,37.20
2019-04-25T11:47:15.563Z,36.90
2019-04-25T11:49:46.547Z,36.20
2019-04-25T11:52:26.990Z,35.30
2019-04-25T11:54:48.815Z,34.60
2019-04-25T11:57:18.106Z,33.50
2019-04-25T11:59:49.199Z,33.80
2019-04-25T12:02:18.536Z,33.50
2019-04-25T12:04:48.949Z,34.30
2019-04-25T12:07:18.433Z,34.10
2019-04-25T12:09:48.138Z,33.00
2019-04-25T12:12:17.578Z,33.20
2019-04-25T12:14:47.615Z,32.70
2019-04-25T12:17:16.901Z,32.90
2019-04-25T12:19:47.077Z,33.30
2019-04-25T12:22:16.608Z,33.50
2019-04-25T12:24:46.711Z,33.20
2019-04-25T12:27:16.175Z,33.30
2019-04-25T12:29:46.038Z,33.30
2019-04-25T12:32:15.578Z,33.50
2019-04-25T12:34:45.776Z,33.50
2019-04-25T12:37:15.166Z,34.10
2019-04-25T12:39:44.454Z,35.10
2019-04-25T12:42:14.476Z,34.80
2019-04-25T12:45:11.786Z,34.40
2019-04-25T12:47:43.778Z,34.10
2019-04-25T12:50:14.366Z,34.00
2019-04-25T12:52:43.924Z,34.10
2019-04-25T12:55:14.307Z,34.90
2019-04-25T12:57:44.806Z,34.80
2019-04-25T13:00:17.165Z,34.30
2019-04-25T13:02:46.493Z,34.60
2019-04-25T13:05:15.886Z,34.80
2019-04-25T13:07:45.179Z,35.50
2019-04-25T13:10:15.358Z,36.90
2019-04-25T13:12:44.712Z,36.50
2019-04-25T13:15:14.597Z,36.40
2019-04-25T13:17:44.015Z,36.60
2019-04-25T13:20:13.606Z,35.60
2019-04-25T13:22:43.304Z,35.20
2019-04-25T13:25:14.722Z,34.70
2019-04-25T13:27:50.756Z,34.30
2019-04-25T13:31:04.118Z,33.70
2019-04-25T13:33:46.978Z,33.10
2019-04-25T13:36:17.286Z,35.30
2019-04-25T13:38:46.619Z,35.60
2019-04-25T13:41:16.016Z,35.80
2019-04-25T13:43:45.312Z,36.00
2019-04-25T13:46:18.843Z,35.10
2019-04-25T13:48:45.882Z,34.90
2019-04-25T13:51:15.216Z,34.30
2019-04-25T13:53:44.576Z,34.20
2019-04-25T13:56:14.268Z,33.20
2019-04-25T13:58:44.364Z,33.30
2019-04-25T14:01:17.489Z,33.30
2019-04-25T14:03:47.046Z,32.90
2019-04-25T14:06:16.418Z,33.60
2019-04-25T14:08:45.747Z,33.00
2019-04-25T14:11:15.117Z,33.30
2019-04-25T14:13:44.462Z,35.00
2019-04-25T14:16:34.896Z,35.30
2019-04-25T14:19:24.289Z,35.40
2019-04-25T14:21:54.870Z,36.00
2019-04-25T14:24:28.108Z,36.00
2019-04-25T14:26:55.196Z,34.80
2019-04-25T14:29:24.613Z,34.10
2019-04-25T14:31:54.185Z,34.30
2019-04-25T14:34:25.325Z,34.90
2019-04-25T14:36:55.422Z,35.00
2019-04-25T14:39:24.935Z,35.00
2019-04-25T14:41:54.297Z,35.50
2019-04-25T14:44:23.637Z,35.00
2019-04-25T14:46:52.979Z,34.80
2019-04-25T14:49:22.713Z,35.40
2019-04-25T14:51:52.067Z,35.10
2019-04-25T14:54:28.450Z,35.00
2019-04-25T14:57:07.751Z,35.30
2019-04-25T14:59:37.092Z,35.60
2019-04-25T15:02:06.571Z,36.70
2019-04-25T15:04:35.844Z,36.80
2019-04-25T15:07:05.182Z,36.30
2019-04-25T15:09:35.380Z,37.20
2019-04-25T15:12:04.723Z,37.60
2019-04-25T15:14:34.104Z,38.00
2019-04-25T15:17:04.493Z,38.10
2019-04-25T15:19:34.018Z,38.30
2019-04-25T15:22:03.522Z,37.40
2019-04-25T15:24:34.853Z,38.80
2019-04-25T15:27:04.430Z,40.00
2019-04-25T15:29:33.782Z,39.40
2019-04-25T15:32:03.470Z,39.90
2019-04-25T15:34:40.034Z,40.20
2019-04-25T15:37:15.699Z,40.60
2019-04-25T15:40:03.984Z,41.10
2019-04-25T15:42:49.952Z,42.10
2019-04-25T15:45:32.509Z,43.30
2019-04-25T15:48:02.096Z,44.30
2019-04-25T15:50:31.928Z,44.10
2019-04-25T15:53:01.285Z,44.30
2019-04-25T15:55:31.250Z,45.20
2019-04-25T15:58:00.737Z,45.00
2019-04-25T16:00:34.914Z,44.90
2019-04-25T16:03:04.994Z,45.40
2019-04-25T16:05:35.577Z,45.60
2019-04-25T16:08:05.585Z,46.10
2019-04-25T16:10:36.711Z,47.20
2019-04-25T16:13:06.315Z,47.40
2019-04-25T16:15:36.137Z,47.50
2019-04-25T16:18:06.463Z,48.00
2019-04-25T16:20:35.889Z,47.60
2019-04-25T16:23:05.467Z,46.30
2019-04-25T16:25:35.487Z,46.20
2019-04-25T16:28:04.921Z,46.60
2019-04-25T16:30:34.562Z,47.50
2019-04-25T16:33:05.160Z,46.70
2019-04-25T16:35:35.447Z,46.40
2019-04-25T16:38:05.887Z,46.00
2019-04-25T16:40:36.256Z,46.10
2019-04-25T16:43:08.017Z,46.10
2019-04-25T16:45:39.213Z,45.80
2019-04-25T16:48:08.725Z,45.50
2019-04-25T16:50:38.088Z,45.90
2019-04-25T16:53:07.408Z,46.40
2019-04-25T16:55:36.730Z,46.70
2019-04-25T16:58:06.227Z,47.10
2019-04-25T17:00:56.959Z,47.50
2019-04-25T17:03:31.116Z,47.40
2019-04-25T17:06:00.450Z,47.80
2019-04-25T17:08:30.964Z,48.20
2019-04-25T17:11:00.243Z,48.60
2019-04-25T17:13:32.115Z,48.80
2019-04-25T17:16:32.596Z,49.10
2019-04-25T17:19:11.392Z,49.20
2019-04-25T17:21:40.938Z,49.70
2019-04-25T17:24:10.278Z,49.70
2019-04-25T17:26:39.666Z,50.00
2019-04-25T17:29:13.277Z,50.10
2019-04-25T17:31:58.702Z,50.50
2019-04-25T17:34:39.268Z,50.50
2019-04-25T17:37:34.295Z,50.60
2019-04-25T17:40:23.179Z,51.20
2019-04-25T17:42:52.500Z,51.00
2019-04-25T17:45:26.030Z,51.10
2019-04-25T17:47:55.357Z,51.10
2019-04-25T17:50:24.771Z,51.20
2019-04-25T17:52:54.152Z,51.40
2019-04-25T17:55:24.081Z,51.20
2019-04-25T17:57:53.316Z,51.50
2019-04-25T18:00:30.867Z,51.20
2019-04-25T18:03:00.149Z,52.10
2019-04-25T18:05:29.556Z,51.60
2019-04-25T18:07:58.975Z,51.60
2019-04-25T18:10:28.354Z,51.80
2019-04-25T18:12:59.634Z,51.60
2019-04-25T18:15:37.929Z,51.60
2019-04-25T18:18:11.579Z,51.80
2019-04-25T18:20:43.084Z,51.90
2019-04-25T18:23:28.987Z,52.10
2019-04-25T18:26:12.278Z,52.10
2019-04-25T18:28:45.956Z,52.20
2019-04-25T18:31:15.412Z,52.40
2019-04-25T18:33:45.888Z,52.90
2019-04-25T18:36:27.441Z,53.00
2019-04-25T18:39:13.741Z,53.20
2019-04-25T18:41:54.634Z,53.30
2019-04-25T18:44:24.026Z,53.50
2019-04-25T18:46:53.820Z,53.50
2019-04-25T18:49:23.227Z,54.20
2019-04-25T18:51:57.959Z,54.20
2019-04-25T18:54:43.131Z,54.30
2019-04-25T18:57:31.278Z,54.60
2019-04-25T19:00:24.665Z,54.90
2019-04-25T19:03:22.683Z,55.00
2019-04-25T19:06:10.973Z,55.20
2019-04-25T19:08:40.873Z,55.30
2019-04-25T19:11:10.303Z,55.40
2019-04-25T19:13:39.670Z,55.70
2019-04-25T19:16:09.062Z,56.10
2019-04-25T19:18:38.831Z,56.50
2019-04-25T19:21:09.488Z,56.30
2019-04-25T19:23:39.388Z,56.60
2019-04-25T19:26:09.705Z,57.10
2019-04-25T19:28:40.090Z,57.20
2019-04-25T19:31:10.086Z,57.80
2019-04-25T19:33:40.647Z,57.50
2019-04-25T19:36:10.453Z,57.70
2019-04-25T19:38:41.904Z,58.00
2019-04-25T19:41:36.396Z,58.20
2019-04-25T19:44:09.671Z,57.70
2019-04-25T19:46:47.358Z,58.20
2019-04-25T19:49:16.769Z,58.20
2019-04-25T19:51:47.169Z,58.10
2019-04-25T19:54:16.659Z,58.50
2019-04-25T19:56:46.020Z,58.40
2019-04-25T19:59:15.305Z,58.40
2019-04-25T20:01:44.726Z,58.50
2019-04-25T20:04:27.158Z,58.50
2019-04-25T20:07:14.428Z,58.60
2019-04-25T20:10:02.728Z,59.20
2019-04-25T20:12:36.414Z,58.80
2019-04-25T20:15:06.494Z,59.30
2019-04-25T20:17:35.817Z,59.30
2019-04-25T20:20:05.949Z,59.10
2019-04-25T20:22:35.319Z,59.10
2019-04-25T20:25:06.172Z,59.00
2019-04-25T20:27:35.488Z,58.90
2019-04-25T20:30:06.558Z,58.90
2019-04-25T20:32:35.829Z,58.80
2019-04-25T20:35:06.015Z,58.60
2019-04-25T20:37:35.336Z,58.60
2019-04-25T20:40:05.285Z,58.50
2019-04-25T20:42:34.615Z,58.50
2019-04-25T20:45:04.156Z,58.50
2019-04-25T20:47:33.442Z,58.80
2019-04-25T20:50:02.813Z,58.50
2019-04-25T20:52:32.196Z,58.60
2019-04-25T20:55:01.602Z,58.40
2019-04-25T20:57:31.008Z,58.40
2019-04-25T21:00:00.401Z,58.50
2019-04-25T21:02:29.796Z,58.50
2019-04-25T21:04:59.107Z,58.50
2019-04-25T21:07:28.514Z,58.50
2019-04-25T21:09:57.816Z,58.40
2019-04-25T21:12:27.127Z,58.40
2019-04-25T21:15:21.494Z,58.60
2019-04-25T21:18:07.926Z,58.50
2019-04-25T21:20:37.236Z,58.40
2019-04-25T21:23:06.550Z,58.30
2019-04-25T21:25:35.859Z,58.30
2019-04-25T21:28:06.473Z,58.30
2019-04-25T21:30:35.855Z,58.10
2019-04-25T21:33:05.288Z,58.10
2019-04-25T21:35:34.882Z,57.80
2019-04-25T21:38:04.293Z,57.80
2019-04-25T21:40:53.901Z,57.60
2019-04-25T21:43:29.294Z,57.60
2019-04-25T21:45:58.976Z,57.50
2019-04-25T21:48:28.675Z,57.50
2019-04-25T21:51:01.006Z,57.50
2019-04-25T21:53:30.532Z,57.50
2019-04-25T21:56:00.017Z,57.60
2019-04-25T21:58:29.712Z,57.60
2019-04-25T22:01:20.156Z,57.70
2019-04-25T22:03:49.478Z,57.80
2019-04-25T22:06:19.120Z,57.80
2019-04-25T22:08:48.518Z,57.90
2019-04-25T22:11:17.815Z,57.90
2019-04-25T22:13:47.493Z,57.90
2019-04-25T22:16:17.151Z,58.10
2019-04-25T22:18:46.725Z,58.30
2019-04-25T22:21:16.268Z,58.30
2019-04-25T22:23:45.964Z,58.40
2019-04-25T22:26:15.370Z,58.60
2019-04-25T22:28:44.992Z,58.80
2019-04-25T22:31:18.852Z,58.70
2019-04-25T22:34:09.198Z,58.70
2019-04-25T22:36:38.814Z,58.80
2019-04-25T22:39:11.085Z,58.80
2019-04-25T22:41:46.283Z,59.10
2019-04-25T22:44:15.815Z,59.40
2019-04-25T22:46:45.435Z,59.20
2019-04-25T22:49:14.803Z,59.60
2019-04-25T22:51:44.161Z,59.60
2019-04-25T22:54:13.840Z,59.80
2019-04-25T22:56:43.230Z,60.00
2019-04-25T22:59:12.817Z,59.90
2019-04-25T23:01:52.462Z,60.10
2019-04-25T23:05:05.432Z,60.40
2019-04-25T23:07:26.968Z,60.60
2019-04-25T23:09:56.552Z,60.70
2019-04-25T23:12:26.720Z,60.00
2019-04-25T23:14:56.078Z,61.10
2019-04-25T23:17:25.454Z,61.20
2019-04-25T23:19:54.846Z,61.50
2019-04-25T23:22:24.156Z,61.20
2019-04-25T23:25:14.226Z,61.60
2019-04-25T23:27:57.088Z,61.80
2019-04-25T23:30:31.730Z,62.00
2019-04-25T23:33:01.112Z,62.30
2019-04-25T23:35:32.047Z,62.60
2019-04-25T23:38:01.557Z,62.70
2019-04-25T23:40:30.936Z,62.60
2019-04-25T23:43:00.518Z,63.10
2019-04-25T23:45:29.824Z,63.20
2019-04-25T23:47:59.175Z,62.90
2019-04-25T23:50:28.802Z,63.50
2019-04-25T23:52:58.193Z,63.80
2019-04-25T23:55:27.815Z,63.90
2019-04-25T23:57:57.178Z,63.40
